createdAt,value
2023-07-30T00:00:55.883Z,2.08
2023-07-30T00:02:30.852Z,1.30
2023-07-30T00:04:06.092Z,0.80
2023-07-30T00:05:40.980Z,1.30
2023-07-30T00:07:16.478Z,0.95
2023-07-30T00:08:51.428Z,1.05
2023-07-30T00:10:26.795Z,1.35
2023-07-30T00:12:01.706Z,1.50
2023-07-30T00:13:36.590Z,2.40
2023-07-30T00:15:11.984Z,2.40
2023-07-30T00:16:47.125Z,2.42
2023-07-30T00:18:22.183Z,2.63
2023-07-30T00:19:57.102Z,3.00
2023-07-30T00:21:32.230Z,2.70
2023-07-30T00:23:07.296Z,3.53
2023-07-30T00:24:42.184Z,3.20
2023-07-30T00:26:17.334Z,5.40
2023-07-30T00:27:52.214Z,6.68
2023-07-30T00:29:27.314Z,9.27
2023-07-30T00:31:02.339Z,9.23
2023-07-30T00:32:37.243Z,10.05
2023-07-30T00:34:12.173Z,10.00
2023-07-30T00:35:47.209Z,11.60
2023-07-30T00:37:22.138Z,11.60
2023-07-30T00:38:57.040Z,11.10
2023-07-30T00:40:31.933Z,10.18
2023-07-30T00:43:41.775Z,9.68
2023-07-30T00:45:17.050Z,10.18
2023-07-30T00:46:52.144Z,8.63
2023-07-30T00:48:27.326Z,9.27
2023-07-30T00:50:03.278Z,7.53
2023-07-30T00:51:38.586Z,6.93
2023-07-30T00:53:17.478Z,5.80
2023-07-30T00:54:54.374Z,4.25
2023-07-30T00:56:29.950Z,3.65
2023-07-30T00:58:05.892Z,4.75
2023-07-30T00:59:40.836Z,4.00
2023-07-30T01:01:16.140Z,3.97
2023-07-30T01:02:51.244Z,3.65
2023-07-30T01:04:26.420Z,3.42
2023-07-30T01:06:01.831Z,3.65
2023-07-30T01:07:37.006Z,3.42
2023-07-30T01:09:13.545Z,3.35
2023-07-30T01:10:48.675Z,3.47
2023-07-30T01:12:24.826Z,2.70
2023-07-30T01:14:01.093Z,2.80
2023-07-30T01:15:36.116Z,2.00
2023-07-30T01:17:11.555Z,2.33
2023-07-30T01:18:46.475Z,1.80
2023-07-30T01:20:21.583Z,1.45
2023-07-30T01:21:56.474Z,1.40
2023-07-30T01:23:31.474Z,1.40
2023-07-30T01:25:06.782Z,1.40
2023-07-30T01:26:47.350Z,0.85
2023-07-30T01:28:23.895Z,1.30
2023-07-30T01:30:10.472Z,1.00
2023-07-30T01:31:50.580Z,1.00
2023-07-30T01:33:25.547Z,0.98
2023-07-30T01:35:03.179Z,1.20
2023-07-30T01:36:39.219Z,1.05
2023-07-30T01:38:15.480Z,0.73
2023-07-30T01:39:52.138Z,1.00
2023-07-30T01:41:27.050Z,0.95
2023-07-30T01:43:02.150Z,0.85
2023-07-30T01:44:37.200Z,1.25
2023-07-30T01:46:12.156Z,1.45
2023-07-30T01:47:47.145Z,1.35
2023-07-30T01:49:22.036Z,1.15
2023-07-30T01:52:31.445Z,0.93
2023-07-30T01:54:06.296Z,1.27
2023-07-30T01:57:20.405Z,1.70
2023-07-30T01:58:55.332Z,1.58
2023-07-30T02:00:30.278Z,1.73
2023-07-30T02:02:06.150Z,1.80
2023-07-30T02:03:41.333Z,1.67
2023-07-30T02:05:16.434Z,2.10
2023-07-30T02:06:51.417Z,2.28
2023-07-30T02:08:26.317Z,2.40
2023-07-30T02:10:01.636Z,2.20
2023-07-30T02:11:36.849Z,2.20
2023-07-30T02:13:12.028Z,2.65
2023-07-30T02:14:47.000Z,2.65
2023-07-30T02:16:22.311Z,2.50
2023-07-30T02:17:57.561Z,2.30
2023-07-30T02:19:32.561Z,3.10
2023-07-30T02:21:07.534Z,2.42
2023-07-30T02:22:42.715Z,2.38
2023-07-30T02:24:17.616Z,2.70
2023-07-30T02:25:52.576Z,2.60
2023-07-30T02:27:27.528Z,3.13
2023-07-30T02:29:02.959Z,2.88
2023-07-30T02:30:37.869Z,2.65
2023-07-30T02:32:12.805Z,3.00
2023-07-30T02:33:47.894Z,2.78
2023-07-30T02:35:23.042Z,3.08
2023-07-30T02:36:57.965Z,2.58
2023-07-30T02:38:32.956Z,2.47
2023-07-30T02:40:08.334Z,2.75
2023-07-30T02:41:43.384Z,2.67
2023-07-30T02:43:18.304Z,2.25
2023-07-30T02:44:53.252Z,2.38
2023-07-30T02:46:28.148Z,2.53
2023-07-30T02:49:37.648Z,1.75
2023-07-30T02:51:12.581Z,2.03
2023-07-30T02:52:47.526Z,1.90
2023-07-30T02:54:25.307Z,2.03
2023-07-30T02:56:00.233Z,1.90
2023-07-30T02:57:35.114Z,2.30
2023-07-30T03:00:44.591Z,2.20
2023-07-30T03:02:19.540Z,1.90
2023-07-30T03:03:54.477Z,2.22
2023-07-30T03:05:29.782Z,2.42
2023-07-30T03:07:05.073Z,2.70
2023-07-30T03:08:40.548Z,2.55
2023-07-30T03:10:15.449Z,1.90
2023-07-30T03:11:51.751Z,2.10
2023-07-30T03:13:26.879Z,2.00
2023-07-30T03:15:01.834Z,1.50
2023-07-30T03:16:36.770Z,1.40
2023-07-30T03:18:11.672Z,2.00
2023-07-30T03:21:21.427Z,1.70
2023-07-30T03:22:56.345Z,1.83
2023-07-30T03:24:31.225Z,1.48
2023-07-30T03:27:41.307Z,1.42
2023-07-30T03:29:17.280Z,1.50
2023-07-30T03:30:52.471Z,1.25
2023-07-30T03:32:27.577Z,1.23
2023-07-30T03:34:02.597Z,1.23
2023-07-30T03:35:37.515Z,1.23
2023-07-30T03:37:12.380Z,1.05
2023-07-30T03:40:22.047Z,0.95
2023-07-30T03:41:56.987Z,1.20
2023-07-30T03:43:31.901Z,1.30
2023-07-30T03:45:07.713Z,0.77
2023-07-30T03:46:42.673Z,1.52
2023-07-30T03:48:17.674Z,1.42
2023-07-30T03:49:52.614Z,0.88
2023-07-30T03:51:27.687Z,1.10
2023-07-30T03:53:02.621Z,0.80
2023-07-30T03:54:37.495Z,1.00
2023-07-30T03:57:47.028Z,1.33
2023-07-30T03:59:21.969Z,1.10
2023-07-30T04:00:56.952Z,0.80
2023-07-30T04:02:32.020Z,0.63
2023-07-30T04:04:07.196Z,1.13
2023-07-30T04:05:42.099Z,1.02
2023-07-30T04:07:17.076Z,0.60
2023-07-30T04:08:51.936Z,0.82
2023-07-30T04:12:01.455Z,0.70
2023-07-30T04:13:36.652Z,0.95
2023-07-30T04:15:11.796Z,0.90
2023-07-30T04:16:49.237Z,0.75
2023-07-30T04:18:24.698Z,0.85
2023-07-30T04:19:59.610Z,1.00
2023-07-30T04:21:34.526Z,1.05
2023-07-30T04:23:09.812Z,0.45
2023-07-30T04:24:44.748Z,0.80
2023-07-30T04:26:20.155Z,0.70
2023-07-30T04:27:55.331Z,0.73
2023-07-30T04:29:30.474Z,0.70
2023-07-30T04:31:05.401Z,0.63
2023-07-30T04:32:40.533Z,0.90
2023-07-30T04:34:15.744Z,0.70
2023-07-30T04:35:50.937Z,0.77
2023-07-30T04:37:25.810Z,0.52
2023-07-30T04:40:35.138Z,0.50
2023-07-30T04:42:10.228Z,1.00
2023-07-30T04:43:45.115Z,0.60
2023-07-30T04:45:19.999Z,0.80
2023-07-30T04:48:29.506Z,0.90
2023-07-30T04:50:04.506Z,0.73
2023-07-30T04:51:40.583Z,0.60
2023-07-30T04:53:15.849Z,0.60
2023-07-30T04:54:50.917Z,0.60
2023-07-30T04:56:28.347Z,0.90
2023-07-30T04:58:03.282Z,0.70
2023-07-30T04:59:38.142Z,0.80
2023-07-30T05:02:47.757Z,0.85
2023-07-30T05:04:22.717Z,0.70
2023-07-30T05:07:32.166Z,0.70
2023-07-30T05:09:07.236Z,0.73
2023-07-30T05:10:42.844Z,0.90
2023-07-30T05:12:17.784Z,0.95
2023-07-30T05:13:52.844Z,0.82
2023-07-30T05:15:28.468Z,1.23
2023-07-30T05:17:03.347Z,0.73
2023-07-30T05:20:13.249Z,0.85
2023-07-30T05:21:48.189Z,0.63
2023-07-30T05:23:23.054Z,0.90
2023-07-30T05:26:32.954Z,0.57
2023-07-30T05:28:07.842Z,0.73
2023-07-30T05:29:43.115Z,1.00
2023-07-30T05:31:18.007Z,0.88
2023-07-30T05:32:53.291Z,0.90
2023-07-30T05:34:28.219Z,0.77
2023-07-30T05:37:37.526Z,0.77
2023-07-30T05:39:12.580Z,1.20
2023-07-30T05:40:47.657Z,1.10
2023-07-30T05:42:22.553Z,1.20
2023-07-30T05:43:57.469Z,0.90
2023-07-30T05:47:07.068Z,1.25
2023-07-30T05:48:41.950Z,1.10
2023-07-30T05:51:51.539Z,0.90
2023-07-30T05:53:26.465Z,1.27
2023-07-30T05:56:36.074Z,1.10
2023-07-30T05:58:11.175Z,1.48
2023-07-30T05:59:46.124Z,1.38
2023-07-30T06:01:21.953Z,0.70
2023-07-30T06:02:56.868Z,0.90
2023-07-30T06:04:32.682Z,0.95
2023-07-30T06:06:07.585Z,0.77
2023-07-30T06:09:16.912Z,0.88
2023-07-30T06:12:26.797Z,1.20
2023-07-30T06:14:01.733Z,0.85
2023-07-30T06:17:12.047Z,0.70
2023-07-30T06:18:47.068Z,0.95
2023-07-30T06:21:56.439Z,0.88
2023-07-30T06:23:31.493Z,1.10
2023-07-30T06:25:06.949Z,1.10
2023-07-30T06:26:41.894Z,0.93
2023-07-30T06:28:16.888Z,1.40
2023-07-30T06:29:52.208Z,1.10
2023-07-30T06:31:27.292Z,0.90
2023-07-30T06:33:02.258Z,1.58
2023-07-30T06:36:11.691Z,1.25
2023-07-30T06:37:46.662Z,1.30
2023-07-30T06:39:21.566Z,1.30
2023-07-30T06:40:59.740Z,2.13
2023-07-30T06:42:35.536Z,2.25
2023-07-30T06:44:10.653Z,1.50
2023-07-30T06:45:45.622Z,1.52
2023-07-30T06:47:20.520Z,1.95
2023-07-30T06:50:30.078Z,1.60
2023-07-30T06:52:05.297Z,1.35
2023-07-30T06:53:40.241Z,1.52
2023-07-30T06:55:15.366Z,1.30
2023-07-30T06:56:50.269Z,1.23
2023-07-30T07:00:00.141Z,0.70
2023-07-30T07:01:35.265Z,0.95
2023-07-30T07:03:10.967Z,0.80
2023-07-30T07:04:46.115Z,0.80
2023-07-30T07:06:20.973Z,0.75
2023-07-30T07:09:30.365Z,0.82
2023-07-30T07:12:40.901Z,0.90
2023-07-30T07:14:16.047Z,0.85
2023-07-30T07:15:50.922Z,0.60
2023-07-30T07:19:00.232Z,0.80
2023-07-30T07:22:09.907Z,0.77
2023-07-30T07:25:21.491Z,0.80
2023-07-30T07:26:56.565Z,0.70
2023-07-30T07:28:31.478Z,1.00
2023-07-30T07:30:06.946Z,0.52
2023-07-30T07:31:42.141Z,1.25
2023-07-30T07:33:17.977Z,0.50
2023-07-30T07:34:53.080Z,0.40
2023-07-30T07:36:27.964Z,0.90
2023-07-30T07:39:37.491Z,1.00
2023-07-30T07:41:18.491Z,1.10
2023-07-30T07:42:53.372Z,1.00
2023-07-30T07:46:02.835Z,1.00
2023-07-30T07:47:37.821Z,2.25
2023-07-30T07:49:12.732Z,1.30
2023-07-30T07:52:22.950Z,1.00
2023-07-30T07:53:57.993Z,1.13
2023-07-30T07:55:32.917Z,1.38
2023-07-30T07:58:42.400Z,1.13
2023-07-30T08:00:17.303Z,0.50
2023-07-30T08:01:52.270Z,0.77
2023-07-30T08:03:30.269Z,0.90
2023-07-30T08:05:05.920Z,0.93
2023-07-30T08:06:40.929Z,1.20
2023-07-30T08:08:15.839Z,1.08
2023-07-30T08:11:25.426Z,0.98
2023-07-30T08:13:00.267Z,0.90
2023-07-30T08:14:35.212Z,0.85
2023-07-30T08:17:44.893Z,0.98
2023-07-30T08:19:19.845Z,1.00
2023-07-30T08:22:29.193Z,1.10
2023-07-30T08:25:38.646Z,1.05
2023-07-30T08:28:47.903Z,1.10
2023-07-30T08:31:57.594Z,0.40
2023-07-30T08:33:32.659Z,0.70
2023-07-30T08:35:08.160Z,0.98
2023-07-30T08:36:43.507Z,0.55
2023-07-30T08:38:18.418Z,0.75
2023-07-30T08:41:28.937Z,1.10
2023-07-30T08:44:40.897Z,0.88
2023-07-30T08:46:15.844Z,1.17
2023-07-30T08:48:12.667Z,1.00
2023-07-30T08:49:47.658Z,1.30
2023-07-30T08:51:24.549Z,1.67
2023-07-30T08:53:01.632Z,1.30
2023-07-30T08:54:38.917Z,1.52
2023-07-30T08:56:14.843Z,1.00
2023-07-30T08:57:50.518Z,1.02
2023-07-30T08:59:26.752Z,1.50
2023-07-30T09:01:04.005Z,1.60
2023-07-30T09:02:44.298Z,1.58
2023-07-30T09:04:20.580Z,1.30
2023-07-30T09:05:55.618Z,1.75
2023-07-30T09:07:30.817Z,1.45
2023-07-30T09:09:05.712Z,1.10
2023-07-30T09:12:18.187Z,1.05
2023-07-30T09:13:59.807Z,0.80
2023-07-30T09:15:36.394Z,0.90
2023-07-30T09:17:11.340Z,1.55
2023-07-30T09:18:52.306Z,1.40
2023-07-30T09:20:27.925Z,1.88
2023-07-30T09:22:07.582Z,1.20
2023-07-30T09:23:47.094Z,1.40
2023-07-30T09:25:22.714Z,1.70
2023-07-30T09:26:59.884Z,1.42
2023-07-30T09:28:35.158Z,1.75
2023-07-30T09:30:13.372Z,1.98
2023-07-30T09:31:58.564Z,1.98
2023-07-30T09:33:37.265Z,2.17
2023-07-30T09:35:13.355Z,1.80
2023-07-30T09:36:50.636Z,2.10
2023-07-30T09:38:27.883Z,1.83
2023-07-30T09:40:03.015Z,2.00
2023-07-30T09:41:38.101Z,1.70
2023-07-30T09:43:13.497Z,2.20
2023-07-30T09:44:50.585Z,2.10
2023-07-30T09:46:31.284Z,2.20
2023-07-30T09:48:08.165Z,2.38
2023-07-30T09:49:44.012Z,2.03
2023-07-30T09:51:20.021Z,2.10
2023-07-30T09:52:56.630Z,2.22
2023-07-30T09:54:33.163Z,1.88
2023-07-30T09:56:09.206Z,2.83
2023-07-30T09:57:44.213Z,6.15
2023-07-30T09:59:19.992Z,5.15
2023-07-30T10:00:56.566Z,58.05
2023-07-30T10:02:33.542Z,8.90
2023-07-30T10:04:11.561Z,2.13
2023-07-30T10:05:49.366Z,1.67
2023-07-30T10:07:26.833Z,1.95
2023-07-30T10:09:03.574Z,3.03
2023-07-30T10:10:39.046Z,35.45
2023-07-30T10:12:17.931Z,29.63
2023-07-30T10:13:53.421Z,33.78
2023-07-30T10:15:28.579Z,23.10
2023-07-30T10:17:03.755Z,10.98
2023-07-30T10:18:46.226Z,37.38
2023-07-30T10:20:33.919Z,35.20
2023-07-30T10:22:21.087Z,23.98
2023-07-30T10:24:06.774Z,5.53
2023-07-30T10:25:47.534Z,4.22
2023-07-30T10:27:27.058Z,2.05
2023-07-30T10:29:22.719Z,1.00
2023-07-30T10:31:02.731Z,1.00
2023-07-30T10:32:44.890Z,2.40
2023-07-30T10:34:19.925Z,18.80
2023-07-30T10:35:58.773Z,3.00
2023-07-30T10:37:35.411Z,1.30
2023-07-30T10:39:13.968Z,0.90
2023-07-30T10:41:10.886Z,1.50
2023-07-30T10:42:46.487Z,1.45
2023-07-30T10:44:25.762Z,1.48
2023-07-30T10:46:00.733Z,1.75
2023-07-30T10:47:37.725Z,1.30
2023-07-30T10:49:14.136Z,2.20
2023-07-30T10:50:50.561Z,6.07
2023-07-30T10:52:28.769Z,19.42
2023-07-30T10:54:08.083Z,6.78
2023-07-30T10:55:43.011Z,42.03
2023-07-30T10:57:19.047Z,16.05
2023-07-30T10:58:55.413Z,52.17
2023-07-30T11:00:30.563Z,32.67
2023-07-30T11:02:06.228Z,36.72
2023-07-30T11:03:41.529Z,12.20
2023-07-30T11:05:16.699Z,6.25
2023-07-30T11:06:53.553Z,53.00
2023-07-30T11:08:36.158Z,15.48
2023-07-30T11:10:11.265Z,17.27
2023-07-30T11:11:46.274Z,30.45
2023-07-30T11:13:21.412Z,6.68
2023-07-30T11:15:05.849Z,1.10
2023-07-30T11:16:41.286Z,12.15
2023-07-30T11:18:16.785Z,5.60
2023-07-30T11:19:51.836Z,2.30
2023-07-30T11:21:26.701Z,4.40
2023-07-30T11:23:01.599Z,4.90
2023-07-30T11:24:40.548Z,4.40
2023-07-30T11:26:20.358Z,3.47
2023-07-30T11:27:55.350Z,2.13
2023-07-30T11:29:30.544Z,5.15
2023-07-30T11:31:10.506Z,4.03
2023-07-30T11:32:47.329Z,2.22
2023-07-30T11:34:22.421Z,2.13
2023-07-30T11:35:58.544Z,2.40
2023-07-30T11:37:34.669Z,1.50
2023-07-30T11:39:10.627Z,1.40
2023-07-30T11:40:46.024Z,2.10
2023-07-30T11:42:21.023Z,1.63
2023-07-30T11:43:57.035Z,1.45
2023-07-30T11:45:32.134Z,5.55
2023-07-30T11:47:08.008Z,2.25
2023-07-30T11:48:45.461Z,1.70
2023-07-30T11:50:20.545Z,1.67
2023-07-30T11:52:07.863Z,1.33
2023-07-30T11:53:49.086Z,2.60
2023-07-30T11:55:26.135Z,2.88
2023-07-30T11:57:01.238Z,3.65
2023-07-30T11:58:36.399Z,2.70
2023-07-30T12:00:11.933Z,2.50
2023-07-30T12:01:46.883Z,2.17
2023-07-30T12:03:23.084Z,7.25
2023-07-30T12:05:11.138Z,7.13
2023-07-30T12:06:56.730Z,3.25
2023-07-30T12:08:31.708Z,2.70
2023-07-30T12:10:14.060Z,3.45
2023-07-30T12:12:03.735Z,2.00
2023-07-30T12:13:49.459Z,2.00
2023-07-30T12:15:25.068Z,3.75
2023-07-30T12:17:00.592Z,1.25
2023-07-30T12:18:35.487Z,3.08
2023-07-30T12:20:10.980Z,2.30
2023-07-30T12:21:46.320Z,2.35
2023-07-30T12:23:22.470Z,1.08
2023-07-30T12:24:57.465Z,1.92
2023-07-30T12:26:32.800Z,1.45
2023-07-30T12:28:08.168Z,3.00
2023-07-30T12:29:44.763Z,1.00
2023-07-30T12:31:19.803Z,2.00
2023-07-30T12:32:54.966Z,3.00
2023-07-30T12:34:30.321Z,2.08
2023-07-30T12:36:05.364Z,1.25
2023-07-30T12:37:40.280Z,0.90
2023-07-30T12:39:15.830Z,0.80
2023-07-30T12:40:50.892Z,1.85
2023-07-30T12:42:25.838Z,24.27
2023-07-30T12:44:00.962Z,2.20
2023-07-30T12:45:35.970Z,2.03
2023-07-30T12:47:11.645Z,2.92
2023-07-30T12:48:46.588Z,3.83
2023-07-30T12:50:21.536Z,2.40
2023-07-30T12:51:56.408Z,2.63
2023-07-30T12:53:31.520Z,1.95
2023-07-30T12:55:06.909Z,6.03
2023-07-30T12:56:41.787Z,4.72
2023-07-30T12:58:16.712Z,4.68
2023-07-30T12:59:51.786Z,6.15
2023-07-30T13:01:27.357Z,2.45
2023-07-30T13:03:03.715Z,4.55
2023-07-30T13:04:39.414Z,2.15
2023-07-30T13:06:14.957Z,2.08
2023-07-30T13:07:49.868Z,1.55
2023-07-30T13:09:24.775Z,1.55
2023-07-30T13:10:59.782Z,2.83
2023-07-30T13:12:35.240Z,3.35
2023-07-30T13:14:10.158Z,5.03
2023-07-30T13:15:45.057Z,5.45
2023-07-30T13:17:19.931Z,3.63
2023-07-30T13:18:55.104Z,1.45
2023-07-30T13:20:30.179Z,2.70
2023-07-30T13:22:05.231Z,4.65
2023-07-30T13:23:40.091Z,3.10
2023-07-30T13:25:15.161Z,3.05
2023-07-30T13:26:50.094Z,17.20
2023-07-30T13:28:25.056Z,21.10
2023-07-30T13:30:00.382Z,25.15
2023-07-30T13:31:35.615Z,7.07
2023-07-30T13:33:10.582Z,8.38
2023-07-30T13:34:45.907Z,9.68
2023-07-30T13:36:20.811Z,5.70
2023-07-30T13:37:56.375Z,12.50
2023-07-30T13:39:31.276Z,8.15
2023-07-30T13:41:06.204Z,10.15
2023-07-30T13:42:41.193Z,6.60
2023-07-30T13:44:16.275Z,5.63
2023-07-30T13:45:52.304Z,3.38
2023-07-30T13:47:27.321Z,4.00
2023-07-30T13:49:02.325Z,45.83
2023-07-30T13:50:37.662Z,17.08
2023-07-30T13:52:12.584Z,8.38
2023-07-30T13:53:47.621Z,9.65
2023-07-30T13:55:22.569Z,14.70
2023-07-30T13:56:57.654Z,18.10
2023-07-30T13:58:32.621Z,16.20
2023-07-30T14:00:08.332Z,30.63
2023-07-30T14:01:43.395Z,11.45
2023-07-30T14:03:18.729Z,19.73
2023-07-30T14:04:53.770Z,22.00
2023-07-30T14:06:28.805Z,15.52
2023-07-30T14:08:03.860Z,41.13
2023-07-30T14:09:39.142Z,6.60
2023-07-30T14:11:14.087Z,9.13
2023-07-30T14:12:48.955Z,8.10
2023-07-30T14:14:25.052Z,6.20
2023-07-30T14:16:00.557Z,4.70
2023-07-30T14:17:35.616Z,4.72
2023-07-30T14:19:10.542Z,2.88
2023-07-30T14:20:45.429Z,3.90
2023-07-30T14:22:20.493Z,6.95
2023-07-30T14:23:55.550Z,4.63
2023-07-30T14:25:30.483Z,4.35
2023-07-30T14:27:05.905Z,2.40
2023-07-30T14:28:41.073Z,3.20
2023-07-30T14:31:33.634Z,3.35
2023-07-30T14:33:09.389Z,3.22
2023-07-30T14:34:44.611Z,3.97
2023-07-30T14:36:19.542Z,3.08
2023-07-30T14:37:54.421Z,3.25
2023-07-30T14:39:29.331Z,3.75
2023-07-30T14:41:04.806Z,4.65
2023-07-30T14:42:39.703Z,3.58
2023-07-30T14:44:14.587Z,2.25
2023-07-30T14:45:51.758Z,2.35
2023-07-30T14:47:26.867Z,1.75
2023-07-30T14:49:02.336Z,1.42
2023-07-30T14:50:37.257Z,1.70
2023-07-30T14:52:12.370Z,1.73
2023-07-30T14:53:47.488Z,1.50
2023-07-30T14:55:22.409Z,1.65
2023-07-30T14:56:57.367Z,1.20
2023-07-30T14:58:32.350Z,1.83
2023-07-30T15:00:09.552Z,1.35
2023-07-30T15:01:44.439Z,1.50
2023-07-30T15:03:19.633Z,1.50
2023-07-30T15:04:54.591Z,2.13
2023-07-30T15:06:33.030Z,1.88
2023-07-30T15:08:07.971Z,2.40
2023-07-30T15:09:43.815Z,1.70
2023-07-30T15:11:18.728Z,2.00
2023-07-30T15:12:53.890Z,39.72
2023-07-30T15:14:29.409Z,47.03
2023-07-30T15:16:04.382Z,117.10
2023-07-30T15:17:39.361Z,23.25
2023-07-30T15:19:14.590Z,10.07
2023-07-30T15:20:50.755Z,7.35
2023-07-30T15:22:25.644Z,6.95
2023-07-30T15:24:00.590Z,9.80
2023-07-30T15:25:35.714Z,7.72
2023-07-30T15:27:10.661Z,3.85
2023-07-30T15:28:45.556Z,9.85
2023-07-30T15:30:20.857Z,6.63
2023-07-30T15:31:56.113Z,6.15
2023-07-30T15:33:32.061Z,4.88
2023-07-30T15:35:08.888Z,7.28
2023-07-30T15:36:43.869Z,5.90
2023-07-30T15:38:18.923Z,8.05
2023-07-30T15:39:53.792Z,5.63
2023-07-30T15:41:29.263Z,19.75
2023-07-30T15:43:05.000Z,9.57
2023-07-30T15:44:40.288Z,8.45
2023-07-30T15:46:15.694Z,11.82
2023-07-30T15:47:50.692Z,6.18
2023-07-30T15:49:25.746Z,8.70
2023-07-30T15:51:04.298Z,4.25
2023-07-30T15:52:39.258Z,8.25
2023-07-30T15:54:14.139Z,9.27
2023-07-30T15:55:49.813Z,3.42
2023-07-30T15:57:24.903Z,2.30
2023-07-30T15:58:59.812Z,4.72
2023-07-30T16:00:35.293Z,2.60
2023-07-30T16:02:10.268Z,3.30
2023-07-30T16:03:45.865Z,6.20
2023-07-30T16:05:20.768Z,2.72
2023-07-30T16:06:59.198Z,2.40
2023-07-30T16:08:41.188Z,3.45
2023-07-30T16:10:16.438Z,3.33
2023-07-30T16:11:51.347Z,3.15
2023-07-30T16:13:26.248Z,3.65
2023-07-30T16:15:01.239Z,4.00
2023-07-30T16:16:38.533Z,3.78
2023-07-30T16:18:13.721Z,3.45
2023-07-30T16:19:48.618Z,3.30
2023-07-30T16:21:23.640Z,3.22
2023-07-30T16:22:58.746Z,4.53
2023-07-30T16:24:33.726Z,3.95
2023-07-30T16:26:08.758Z,3.35
2023-07-30T16:27:44.002Z,3.60
2023-07-30T16:29:19.490Z,5.72
2023-07-30T16:30:54.482Z,4.70
2023-07-30T16:32:29.423Z,3.08
2023-07-30T16:34:04.665Z,5.20
2023-07-30T16:35:39.800Z,6.20
2023-07-30T16:37:20.800Z,7.30
2023-07-30T16:40:30.147Z,5.78
2023-07-30T16:42:05.445Z,5.57
2023-07-30T16:43:40.456Z,4.22
2023-07-30T16:45:15.481Z,5.13
2023-07-30T16:46:50.451Z,4.55
2023-07-30T16:48:25.608Z,5.35
2023-07-30T16:50:00.498Z,4.65
2023-07-30T16:53:09.724Z,5.38
2023-07-30T16:54:44.862Z,36.78
2023-07-30T16:56:19.996Z,51.10
2023-07-30T16:57:55.287Z,11.15
2023-07-30T16:59:30.162Z,6.90
2023-07-30T17:02:40.231Z,14.30
2023-07-30T17:04:15.184Z,13.18
2023-07-30T17:05:59.356Z,8.07
2023-07-30T17:07:34.458Z,5.78
2023-07-30T17:09:09.347Z,5.85
2023-07-30T17:10:44.340Z,5.63
2023-07-30T17:12:19.376Z,5.97
2023-07-30T17:13:56.515Z,6.30
2023-07-30T17:15:31.684Z,6.65
2023-07-30T17:17:06.694Z,6.22
2023-07-30T17:18:41.695Z,6.82
2023-07-30T17:20:17.810Z,6.63
2023-07-30T17:21:52.824Z,6.70
2023-07-30T17:23:28.468Z,7.18
2023-07-30T17:25:03.655Z,6.50
2023-07-30T17:26:39.005Z,6.57
2023-07-30T17:28:14.102Z,7.50
2023-07-30T17:31:49.125Z,8.45
2023-07-30T17:33:24.275Z,6.53
2023-07-30T17:34:59.316Z,9.23
2023-07-30T17:36:36.667Z,9.30
2023-07-30T17:38:12.121Z,8.80
2023-07-30T17:39:47.639Z,8.43
2023-07-30T17:41:22.651Z,8.65
2023-07-30T17:42:57.864Z,8.88
2023-07-30T17:44:34.112Z,8.95
2023-07-30T17:46:09.105Z,10.00
2023-07-30T17:47:44.014Z,8.00
2023-07-30T17:50:53.795Z,9.85
2023-07-30T17:52:28.697Z,12.38
2023-07-30T17:55:41.941Z,7.53
2023-07-30T17:57:17.008Z,8.07
2023-07-30T17:58:51.939Z,8.07
2023-07-30T18:00:26.955Z,8.02
2023-07-30T18:02:01.959Z,7.45
2023-07-30T18:05:18.402Z,7.43
2023-07-30T18:06:54.309Z,8.00
2023-07-30T18:10:07.053Z,8.05
2023-07-30T18:11:42.517Z,10.32
2023-07-30T18:13:19.023Z,18.05
2023-07-30T18:14:53.936Z,34.28
2023-07-30T18:18:05.767Z,38.38
2023-07-30T18:19:40.679Z,41.58
2023-07-30T18:21:15.588Z,42.15
2023-07-30T18:24:25.130Z,33.58
2023-07-30T18:26:00.112Z,34.60
2023-07-30T18:27:34.980Z,30.63
2023-07-30T18:30:44.544Z,40.97
2023-07-30T18:32:19.497Z,45.10
2023-07-30T18:33:54.436Z,50.00
2023-07-30T18:37:03.966Z,47.45
2023-07-30T18:38:39.145Z,46.58
2023-07-30T18:40:14.420Z,49.88
2023-07-30T18:41:51.329Z,54.70
2023-07-30T18:43:27.906Z,65.00
2023-07-30T18:45:02.938Z,55.13
2023-07-30T18:46:38.146Z,56.47
2023-07-30T18:48:13.833Z,66.00
2023-07-30T18:49:48.889Z,61.60
2023-07-30T18:51:23.934Z,61.15
2023-07-30T18:52:58.851Z,61.60
2023-07-30T18:56:08.581Z,48.85
2023-07-30T18:57:50.727Z,51.72
2023-07-30T18:59:25.731Z,58.38
2023-07-30T19:01:01.015Z,65.57
2023-07-30T19:02:36.169Z,57.03
2023-07-30T19:04:11.170Z,57.83
2023-07-30T19:05:53.779Z,61.33
2023-07-30T19:07:28.900Z,59.45
2023-07-30T19:09:03.848Z,58.72
2023-07-30T19:10:38.803Z,60.28
2023-07-30T19:13:48.414Z,51.00
2023-07-30T19:15:24.118Z,50.67
2023-07-30T19:16:59.085Z,51.70
2023-07-30T19:18:34.039Z,50.13
2023-07-30T19:21:43.803Z,50.20
2023-07-30T19:23:18.699Z,49.28
2023-07-30T19:26:28.130Z,47.08
2023-07-30T19:29:42.669Z,47.85
2023-07-30T19:31:17.725Z,46.97
2023-07-30T19:32:52.754Z,45.25
2023-07-30T19:34:27.697Z,45.75
2023-07-30T19:37:37.157Z,41.53
2023-07-30T19:39:12.327Z,37.65
2023-07-30T19:40:52.594Z,40.65
2023-07-30T19:42:30.649Z,41.85
2023-07-30T19:44:06.045Z,40.88
2023-07-30T19:45:40.916Z,41.95
2023-07-30T19:47:19.623Z,39.35
2023-07-30T19:48:56.539Z,41.70
2023-07-30T19:50:40.196Z,38.17
2023-07-30T19:52:19.256Z,36.17
2023-07-30T19:53:54.177Z,37.00
2023-07-30T19:57:03.534Z,33.05
2023-07-30T20:00:13.520Z,31.83
2023-07-30T20:01:48.425Z,31.88
2023-07-30T20:03:23.517Z,30.70
2023-07-30T20:04:58.779Z,31.02
2023-07-30T20:06:34.106Z,29.15
2023-07-30T20:08:09.133Z,29.13
2023-07-30T20:09:44.228Z,33.58
2023-07-30T20:12:54.671Z,26.30
2023-07-30T20:14:29.969Z,25.95
2023-07-30T20:16:11.739Z,22.30
2023-07-30T20:17:46.915Z,21.92
2023-07-30T20:19:21.815Z,19.58
2023-07-30T20:22:31.204Z,11.88
2023-07-30T20:24:07.623Z,10.90
2023-07-30T20:25:42.575Z,12.60
2023-07-30T20:27:17.443Z,14.77
2023-07-30T20:30:28.070Z,15.40
2023-07-30T20:32:03.576Z,18.42
2023-07-30T20:33:38.607Z,17.27
2023-07-30T20:35:13.591Z,17.88
2023-07-30T20:36:48.511Z,14.32
2023-07-30T20:39:58.844Z,10.30
2023-07-30T20:41:33.741Z,9.88
2023-07-30T20:44:43.338Z,12.15
2023-07-30T20:46:18.431Z,12.38
2023-07-30T20:47:54.708Z,14.80
2023-07-30T20:49:31.853Z,17.77
2023-07-30T20:51:07.111Z,19.35
2023-07-30T20:52:42.066Z,19.30
2023-07-30T20:55:53.261Z,19.67
2023-07-30T20:57:28.254Z,19.92
2023-07-30T20:59:03.376Z,22.10
2023-07-30T21:00:38.388Z,24.30
2023-07-30T21:02:13.392Z,21.63
2023-07-30T21:03:48.273Z,21.00
2023-07-30T21:06:57.601Z,19.67
2023-07-30T21:08:32.609Z,23.58
2023-07-30T21:10:07.945Z,18.08
2023-07-30T21:11:43.274Z,17.38
2023-07-30T21:13:18.325Z,18.77
2023-07-30T21:14:54.103Z,21.27
2023-07-30T21:16:29.295Z,19.25
2023-07-30T21:18:04.393Z,18.77
2023-07-30T21:19:39.467Z,18.52
2023-07-30T21:21:14.649Z,18.55
2023-07-30T21:22:52.627Z,15.25
2023-07-30T21:24:27.622Z,18.23
2023-07-30T21:26:03.008Z,16.83
2023-07-30T21:27:38.169Z,16.52
2023-07-30T21:29:13.331Z,14.98
2023-07-30T21:30:48.204Z,17.13
2023-07-30T21:32:23.316Z,16.75
2023-07-30T21:33:58.287Z,15.77
2023-07-30T21:37:07.787Z,13.30
2023-07-30T21:38:43.559Z,15.77
2023-07-30T21:40:18.884Z,14.73
2023-07-30T21:41:53.787Z,14.27
2023-07-30T21:45:04.014Z,11.70
2023-07-30T21:46:42.146Z,10.93
2023-07-30T21:48:17.512Z,10.50
2023-07-30T21:49:52.555Z,12.23
2023-07-30T21:51:27.498Z,11.82
2023-07-30T21:54:37.056Z,11.45
2023-07-30T21:57:47.501Z,11.38
2023-07-30T21:59:22.615Z,11.18
2023-07-30T22:00:58.871Z,10.10
2023-07-30T22:02:33.923Z,11.05
2023-07-30T22:04:08.856Z,10.35
2023-07-30T22:07:18.349Z,10.13
2023-07-30T22:08:53.301Z,9.70
2023-07-30T22:12:02.840Z,8.57
2023-07-30T22:13:37.699Z,8.82
2023-07-30T22:15:12.775Z,8.13
2023-07-30T22:16:47.763Z,8.30
2023-07-30T22:18:22.927Z,8.45
2023-07-30T22:19:57.849Z,8.10
2023-07-30T22:23:07.376Z,8.32
2023-07-30T22:24:42.527Z,8.60
2023-07-30T22:26:17.386Z,8.13
2023-07-30T22:28:02.961Z,7.80
2023-07-30T22:29:43.433Z,9.02
2023-07-30T22:31:18.356Z,6.85
2023-07-30T22:32:53.321Z,6.00
2023-07-30T22:36:06.101Z,6.45
2023-07-30T22:37:41.074Z,6.78
2023-07-30T22:39:16.033Z,6.25
2023-07-30T22:42:25.448Z,7.55
2023-07-30T22:44:00.816Z,7.10
2023-07-30T22:45:35.753Z,6.75
2023-07-30T22:48:45.369Z,7.60
2023-07-30T22:50:20.517Z,6.55
2023-07-30T22:51:56.032Z,8.13
2023-07-30T22:53:31.147Z,6.22
2023-07-30T22:55:06.608Z,6.70
2023-07-30T22:56:41.902Z,7.75
2023-07-30T22:58:17.067Z,7.05
2023-07-30T22:59:52.063Z,6.95
2023-07-30T23:03:01.636Z,6.15
2023-07-30T23:04:36.649Z,6.72
2023-07-30T23:06:11.644Z,6.50
2023-07-30T23:07:46.681Z,7.13
2023-07-30T23:09:24.641Z,6.03
2023-07-30T23:10:59.601Z,6.30
2023-07-30T23:12:34.608Z,6.95
2023-07-30T23:15:45.116Z,6.43
2023-07-30T23:17:20.047Z,6.35
2023-07-30T23:20:29.441Z,6.30
2023-07-30T23:23:40.770Z,6.15